Strona główna
METAR-TAF:

METAR-TAF

Lotnisko :

Port lotniczy Mitiga

Trypolis, Libia

Szerokość geograficzna: 32-54N, Długość geograficzna: 13-17E, wysokość: 11 m

METAR: brakujący

czas: 23:57 (21:57 UTC)

Prognoza

Raport powstał 34 godziny i 57 minut temu, godzina 11:00 UTC
Prognoza ważna od 05 godzina 12 UTC do 06 godzina 12 UTC
Wiatr 12 kt od północno-północny zachód
Widzialność: 8000 m
Rozproszone chmury na wysokości 2500 ft
Stopniowe zmiany
od 05 godzina 18 UTC do 05 godzina 20 UTC
Wiatr 2 kt z kierunków zmiennych
Stopniowe zmiany
od 06 godzina 10 UTC do 06 godzina 12 UTC
Wiatr 10 kt od północ

TAF: HLLM 051100Z 0512/0612 33012KT 8000 SCT025 BECMG 0518/0520 VRB02KT BECMG 0610/0612 36010KT

Obserwacja i prognoza pogody dla ponad 4000 lotnisk (raport METAR i TAF).

Dostępne stacje oznaczono żółtymi i czerwonymi punktami na mapie.

Najedź kursorem aby zobaczyć nazwę stacji.

Kliknij aby zobaczyć obserwacje i prognozy pogody.

Aby zmienić mapę: kliknij na zielony przycisk z czarnym krzyżykiem, aby powiększyć; na zielony przycisk z myślnikiem, aby pomniejszyć; na zielone strzałki, aby przejść do map sąsiednich.


METAR-TAF: